Weatherford, Texas
Current Conditions -  °F | °C
As of 3:53 AM on Thursday 29 Jan 2015 (Local Time) from KMWL Reporting Station
Clear Clear  
Wind Chill: 54°   Ceiling: Unl
Heat Index: 54°   Visibility: 10mi
Dew Point: 39°   Wind: 3mph
Humidity: 57%   Direction: 300°WNW
Pressure: 30.08"   Gusts: NA
Location:  32.76°N, 97.8°W
Report Text: KMWL 290953Z AUTO 30003KT 10SM CLR 12/04 A3008 RMK AO2 SLP176 T01220039
Loading
Personal Weather Stations






























Interactive Weather Map New forecast layout! Learn more

10-Day Weather Forecast

Advertisements
Track Severe Weather on mobile